sensor_id;sensor_type;location;lat;lon;timestamp;pressure;altitude;pressure_sealevel;temperature;humidity
81352;BME280;70809;52.184;13.422;2024-02-21T00:00:11;101765.47;;;7.23;87.21
81352;BME280;70809;52.184;13.422;2024-02-21T00:01:15;101763.13;;;7.10;86.70
81352;BME280;70809;52.184;13.422;2024-02-21T00:02:16;101767.31;;;7.26;86.66
81352;BME280;70809;52.184;13.422;2024-02-21T00:03:18;101762.28;;;7.11;87.12
81352;BME280;70809;52.184;13.422;2024-02-21T00:04:20;101768.00;;;7.22;86.37
81352;BME280;70809;52.184;13.422;2024-02-21T00:05:21;101765.91;;;7.13;87.10
81352;BME280;70809;52.184;13.422;2024-02-21T00:06:23;101757.81;;;7.08;87.03
81352;BME280;70809;52.184;13.422;2024-02-21T00:07:25;101762.09;;;7.06;86.87
81352;BME280;70809;52.184;13.422;2024-02-21T00:08:26;101754.75;;;7.18;86.48
81352;BME280;70809;52.184;13.422;2024-02-21T00:09:28;101753.16;;;7.22;86.14
81352;BME280;70809;52.184;13.422;2024-02-21T00:10:31;101754.19;;;7.26;86.12
81352;BME280;70809;52.184;13.422;2024-02-21T00:11:33;101753.09;;;7.21;85.48
81352;BME280;70809;52.184;13.422;2024-02-21T00:12:34;101758.28;;;7.19;86.11
81352;BME280;70809;52.184;13.422;2024-02-21T00:13:36;101759.38;;;7.24;86.60
81352;BME280;70809;52.184;13.422;2024-02-21T00:14:37;101744.88;;;7.34;85.55
81352;BME280;70809;52.184;13.422;2024-02-21T00:15:39;101749.34;;;7.35;85.11
81352;BME280;70809;52.184;13.422;2024-02-21T00:16:41;101753.44;;;7.49;84.65
81352;BME280;70809;52.184;13.422;2024-02-21T00:17:44;101746.31;;;7.26;85.14
81352;BME280;70809;52.184;13.422;2024-02-21T00:18:45;101739.94;;;7.40;85.27
81352;BME280;70809;52.184;13.422;2024-02-21T00:19:47;101736.56;;;7.44;84.69
81352;BME280;70809;52.184;13.422;2024-02-21T00:20:49;101750.03;;;7.31;85.29
81352;BME280;70809;52.184;13.422;2024-02-21T00:21:50;101744.50;;;7.25;85.15
81352;BME280;70809;52.184;13.422;2024-02-21T00:22:52;101736.69;;;7.26;85.31
81352;BME280;70809;52.184;13.422;2024-02-21T00:23:54;101742.56;;;7.21;84.96
81352;BME280;70809;52.184;13.422;2024-02-21T00:24:55;101734.69;;;7.21;85.23
81352;BME280;70809;52.184;13.422;2024-02-21T00:25:58;101739.31;;;7.26;84.81
81352;BME280;70809;52.184;13.422;2024-02-21T00:27:00;101740.84;;;7.21;84.79
81352;BME280;70809;52.184;13.422;2024-02-21T00:28:02;101732.75;;;7.16;85.04
81352;BME280;70809;52.184;13.422;2024-02-21T00:29:04;101725.53;;;7.32;84.60
81352;BME280;70809;52.184;13.422;2024-02-21T00:30:10;101734.47;;;7.35;84.41
81352;BME280;70809;52.184;13.422;2024-02-21T00:31:12;101725.84;;;7.39;84.55
81352;BME280;70809;52.184;13.422;2024-02-21T00:32:14;101722.91;;;7.32;84.15
81352;BME280;70809;52.184;13.422;2024-02-21T00:33:16;101716.75;;;7.31;84.68
81352;BME280;70809;52.184;13.422;2024-02-21T00:34:18;101725.16;;;7.23;84.86
81352;BME280;70809;52.184;13.422;2024-02-21T00:35:19;101722.91;;;7.32;84.59
81352;BME280;70809;52.184;13.422;2024-02-21T00:36:21;101718.94;;;7.21;84.76
81352;BME280;70809;52.184;13.422;2024-02-21T00:37:22;101726.16;;;7.26;84.76
81352;BME280;70809;52.184;13.422;2024-02-21T00:38:24;101721.59;;;7.22;84.77
81352;BME280;70809;52.184;13.422;2024-02-21T00:39:26;101719.91;;;7.23;85.34
81352;BME280;70809;52.184;13.422;2024-02-21T00:40:27;101723.81;;;7.32;84.68
81352;BME280;70809;52.184;13.422;2024-02-21T00:41:30;101724.69;;;7.33;84.76
81352;BME280;70809;52.184;13.422;2024-02-21T00:42:32;101724.97;;;7.39;84.56
81352;BME280;70809;52.184;13.422;2024-02-21T00:43:33;101722.53;;;7.43;84.06
81352;BME280;70809;52.184;13.422;2024-02-21T00:44:35;101723.84;;;7.34;84.00
81352;BME280;70809;52.184;13.422;2024-02-21T00:45:37;101723.31;;;7.41;84.13
81352;BME280;70809;52.184;13.422;2024-02-21T00:46:38;101724.56;;;7.51;83.73
81352;BME280;70809;52.184;13.422;2024-02-21T00:47:40;101723.63;;;7.49;83.39
81352;BME280;70809;52.184;13.422;2024-02-21T00:48:42;101718.56;;;7.53;83.33
81352;BME280;70809;52.184;13.422;2024-02-21T00:49:44;101717.97;;;7.39;83.49
81352;BME280;70809;52.184;13.422;2024-02-21T00:50:45;101710.47;;;7.49;83.39
81352;BME280;70809;52.184;13.422;2024-02-21T00:51:47;101708.28;;;7.38;83.22
81352;BME280;70809;52.184;13.422;2024-02-21T00:52:49;101716.91;;;7.34;83.52
81352;BME280;70809;52.184;13.422;2024-02-21T00:53:51;101715.28;;;7.38;83.99
81352;BME280;70809;52.184;13.422;2024-02-21T00:54:52;101707.66;;;7.44;83.39
81352;BME280;70809;52.184;13.422;2024-02-21T00:55:55;101716.63;;;7.49;83.26
81352;BME280;70809;52.184;13.422;2024-02-21T00:56:58;101710.16;;;7.41;82.72
81352;BME280;70809;52.184;13.422;2024-02-21T00:58:00;101709.19;;;7.39;83.55
81352;BME280;70809;52.184;13.422;2024-02-21T00:59:02;101698.72;;;7.61;82.75
81352;BME280;70809;52.184;13.422;2024-02-21T01:00:04;101706.69;;;7.42;83.39
81352;BME280;70809;52.184;13.422;2024-02-21T01:01:06;101705.03;;;7.44;83.48
81352;BME280;70809;52.184;13.422;2024-02-21T01:02:08;101706.00;;;7.46;83.28
81352;BME280;70809;52.184;13.422;2024-02-21T01:03:10;101705.47;;;7.34;83.25
81352;BME280;70809;52.184;13.422;2024-02-21T01:04:11;101705.81;;;7.41;83.44
81352;BME280;70809;52.184;13.422;2024-02-21T01:05:13;101712.91;;;7.44;82.83
81352;BME280;70809;52.184;13.422;2024-02-21T01:06:15;101706.75;;;7.43;83.23
81352;BME280;70809;52.184;13.422;2024-02-21T01:07:17;101701.38;;;7.40;82.93
81352;BME280;70809;52.184;13.422;2024-02-21T01:08:18;101705.88;;;7.43;83.15
81352;BME280;70809;52.184;13.422;2024-02-21T01:09:20;101705.88;;;7.43;83.41
81352;BME280;70809;52.184;13.422;2024-02-21T01:10:24;101700.50;;;7.40;83.49
81352;BME280;70809;52.184;13.422;2024-02-21T01:11:26;101704.78;;;7.38;83.37
81352;BME280;70809;52.184;13.422;2024-02-21T01:12:29;101704.78;;;7.38;83.15
81352;BME280;70809;52.184;13.422;2024-02-21T01:13:31;101697.66;;;7.35;83.44
81352;BME280;70809;52.184;13.422;2024-02-21T01:14:32;101697.53;;;7.32;83.54
81352;BME280;70809;52.184;13.422;2024-02-21T01:15:34;101700.56;;;7.41;83.05
81352;BME280;70809;52.184;13.422;2024-02-21T01:16:35;101702.97;;;7.37;83.38
81352;BME280;70809;52.184;13.422;2024-02-21T01:17:37;101696.94;;;7.39;83.37
81352;BME280;70809;52.184;13.422;2024-02-21T01:18:39;101697.13;;;7.44;82.85
81352;BME280;70809;52.184;13.422;2024-02-21T01:19:41;101700.41;;;7.38;82.84
81352;BME280;70809;52.184;13.422;2024-02-21T01:20:43;101702.97;;;7.37;83.04
81352;BME280;70809;52.184;13.422;2024-02-21T01:21:45;101698.34;;;7.31;83.32
81352;BME280;70809;52.184;13.422;2024-02-21T01:22:46;101696.19;;;7.42;83.53
81352;BME280;70809;52.184;13.422;2024-02-21T01:23:48;101696.13;;;7.40;83.57
81352;BME280;70809;52.184;13.422;2024-02-21T01:24:50;101693.41;;;7.39;83.82
81352;BME280;70809;52.184;13.422;2024-02-21T01:25:51;101694.31;;;7.39;83.19
81352;BME280;70809;52.184;13.422;2024-02-21T01:26:53;101689.13;;;7.41;83.51
81352;BME280;70809;52.184;13.422;2024-02-21T01:27:56;101691.13;;;7.47;83.03
81352;BME280;70809;52.184;13.422;2024-02-21T01:29:00;101690.53;;;7.54;82.79
81352;BME280;70809;52.184;13.422;2024-02-21T01:30:01;101692.78;;;7.44;82.95
81352;BME280;70809;52.184;13.422;2024-02-21T01:31:03;101689.50;;;7.50;82.95
81352;BME280;70809;52.184;13.422;2024-02-21T01:32:05;101697.38;;;7.50;82.88
81352;BME280;70809;52.184;13.422;2024-02-21T01:33:07;101688.31;;;7.42;83.07
81352;BME280;70809;52.184;13.422;2024-02-21T01:34:08;101690.16;;;7.44;83.10
81352;BME280;70809;52.184;13.422;2024-02-21T01:35:10;101681.09;;;7.38;83.35
81352;BME280;70809;52.184;13.422;2024-02-21T01:36:12;101686.13;;;7.32;83.55
81352;BME280;70809;52.184;13.422;2024-02-21T01:37:14;101678.63;;;7.41;83.05
81352;BME280;70809;52.184;13.422;2024-02-21T01:38:16;101692.53;;;7.38;83.29
81352;BME280;70809;52.184;13.422;2024-02-21T01:39:17;101680.09;;;7.34;83.59
81352;BME280;70809;52.184;13.422;2024-02-21T01:40:19;101682.00;;;7.38;83.21
81352;BME280;70809;52.184;13.422;2024-02-21T01:41:20;101683.78;;;7.39;82.86
81352;BME280;70809;52.184;13.422;2024-02-21T01:42:22;101682.09;;;7.40;83.15
81352;BME280;70809;52.184;13.422;2024-02-21T01:43:25;101679.81;;;7.49;82.90
81352;BME280;70809;52.184;13.422;2024-02-21T01:44:27;101690.09;;;7.43;83.13
81352;BME280;70809;52.184;13.422;2024-02-21T01:45:28;101680.63;;;7.47;83.99
81352;BME280;70809;52.184;13.422;2024-02-21T01:46:30;101672.13;;;7.33;83.79
81352;BME280;70809;52.184;13.422;2024-02-21T01:47:35;101675.66;;;7.33;84.03
81352;BME280;70809;52.184;13.422;2024-02-21T01:48:37;101673.13;;;7.35;84.83
81352;BME280;70809;52.184;13.422;2024-02-21T01:49:39;101674.44;;;7.25;84.70
81352;BME280;70809;52.184;13.422;2024-02-21T01:50:41;101679.81;;;7.28;84.61
81352;BME280;70809;52.184;13.422;2024-02-21T01:51:43;101673.03;;;7.33;84.67
81352;BME280;70809;52.184;13.422;2024-02-21T01:52:46;101674.72;;;7.31;84.81
81352;BME280;70809;52.184;13.422;2024-02-21T01:53:51;101673.91;;;7.34;85.27
81352;BME280;70809;52.184;13.422;2024-02-21T01:54:53;101665.09;;;7.32;85.68
81352;BME280;70809;52.184;13.422;2024-02-21T01:55:54;101664.69;;;7.43;85.37
81352;BME280;70809;52.184;13.422;2024-02-21T01:56:56;101665.72;;;7.26;85.73
81352;BME280;70809;52.184;13.422;2024-02-21T01:57:58;101664.13;;;7.30;86.23
81352;BME280;70809;52.184;13.422;2024-02-21T01:59:01;101658.69;;;7.25;86.45
81352;BME280;70809;52.184;13.422;2024-02-21T02:00:04;101668.41;;;7.28;86.51
81352;BME280;70809;52.184;13.422;2024-02-21T02:01:11;101665.41;;;7.18;86.77
81352;BME280;70809;52.184;13.422;2024-02-21T02:02:13;101665.00;;;7.09;86.92
81352;BME280;70809;52.184;13.422;2024-02-21T02:03:15;101666.09;;;7.14;87.49
81352;BME280;70809;52.184;13.422;2024-02-21T02:04:16;101656.91;;;7.24;86.95
81352;BME280;70809;52.184;13.422;2024-02-21T02:05:18;101656.56;;;7.16;87.19
81352;BME280;70809;52.184;13.422;2024-02-21T02:06:20;101650.94;;;7.07;88.26
81352;BME280;70809;52.184;13.422;2024-02-21T02:07:22;101650.94;;;7.07;88.14
81352;BME280;70809;52.184;13.422;2024-02-21T02:08:24;101652.03;;;7.12;88.21
81352;BME280;70809;52.184;13.422;2024-02-21T02:09:25;101660.34;;;7.02;88.29
81352;BME280;70809;52.184;13.422;2024-02-21T02:10:27;101654.25;;;7.03;88.66
81352;BME280;70809;52.184;13.422;2024-02-21T02:11:31;101649.50;;;6.95;89.06
81352;BME280;70809;52.184;13.422;2024-02-21T02:12:33;101643.41;;;6.96;88.82
81352;BME280;70809;52.184;13.422;2024-02-21T02:13:35;101645.63;;;7.06;88.90
81352;BME280;70809;52.184;13.422;2024-02-21T02:14:38;101645.94;;;7.13;88.85
81352;BME280;70809;52.184;13.422;2024-02-21T02:15:40;101640.38;;;7.06;88.42
81352;BME280;70809;52.184;13.422;2024-02-21T02:16:42;101642.25;;;7.10;88.74
81352;BME280;70809;52.184;13.422;2024-02-21T02:17:43;101644.06;;;6.90;89.52
81352;BME280;70809;52.184;13.422;2024-02-21T02:18:45;101643.38;;;6.94;89.99
81352;BME280;70809;52.184;13.422;2024-02-21T02:19:47;101640.75;;;6.94;89.27
81352;BME280;70809;52.184;13.422;2024-02-21T02:20:49;101640.22;;;7.03;89.68
81352;BME280;70809;52.184;13.422;2024-02-21T02:21:54;101639.09;;;7.17;88.90
81352;BME280;70809;52.184;13.422;2024-02-21T02:22:57;101638.03;;;7.13;89.08
81352;BME280;70809;52.184;13.422;2024-02-21T02:24:02;101637.00;;;6.89;89.52
81352;BME280;70809;52.184;13.422;2024-02-21T02:25:04;101635.47;;;6.94;89.82
81352;BME280;70809;52.184;13.422;2024-02-21T02:26:06;101637.28;;;6.95;89.47
81352;BME280;70809;52.184;13.422;2024-02-21T02:27:08;101628.25;;;6.88;89.84
81352;BME280;70809;52.184;13.422;2024-02-21T02:28:10;101627.47;;;6.91;90.32
81352;BME280;70809;52.184;13.422;2024-02-21T02:29:11;101628.03;;;6.84;90.81
81352;BME280;70809;52.184;13.422;2024-02-21T02:30:13;101631.50;;;6.83;90.70
81352;BME280;70809;52.184;13.422;2024-02-21T02:31:15;101621.78;;;6.82;91.37
81352;BME280;70809;52.184;13.422;2024-02-21T02:32:17;101620.91;;;6.81;92.19
81352;BME280;70809;52.184;13.422;2024-02-21T02:33:18;101626.25;;;6.83;92.12
81352;BME280;70809;52.184;13.422;2024-02-21T02:34:20;101628.03;;;6.84;92.17
81352;BME280;70809;52.184;13.422;2024-02-21T02:35:22;101629.03;;;6.87;91.82
81352;BME280;70809;52.184;13.422;2024-02-21T02:36:24;101625.78;;;6.93;92.11
81352;BME280;70809;52.184;13.422;2024-02-21T02:37:25;101615.81;;;6.84;92.56
81352;BME280;70809;52.184;13.422;2024-02-21T02:38:27;101621.63;;;6.77;93.26
81352;BME280;70809;52.184;13.422;2024-02-21T02:39:30;101621.75;;;6.80;93.05
81352;BME280;70809;52.184;13.422;2024-02-21T02:40:33;101622.53;;;6.78;92.78
81352;BME280;70809;52.184;13.422;2024-02-21T02:41:35;101623.28;;;6.75;93.69
81352;BME280;70809;52.184;13.422;2024-02-21T02:42:37;101614.91;;;6.64;93.62
81352;BME280;70809;52.184;13.422;2024-02-21T02:43:38;101618.31;;;6.62;93.88
81352;BME280;70809;52.184;13.422;2024-02-21T02:44:40;101623.78;;;6.67;93.66
81352;BME280;70809;52.184;13.422;2024-02-21T02:45:41;101618.00;;;6.75;93.89
81352;BME280;70809;52.184;13.422;2024-02-21T02:46:43;101620.84;;;6.80;93.84
81352;BME280;70809;52.184;13.422;2024-02-21T02:47:45;101626.31;;;6.65;93.87
81352;BME280;70809;52.184;13.422;2024-02-21T02:48:47;101618.16;;;6.78;93.56
81352;BME280;70809;52.184;13.422;2024-02-21T02:49:49;101622.09;;;6.69;93.71
81352;BME280;70809;52.184;13.422;2024-02-21T02:50:50;101613.97;;;6.62;94.12
81352;BME280;70809;52.184;13.422;2024-02-21T02:51:52;101617.31;;;6.79;93.92
81352;BME280;70809;52.184;13.422;2024-02-21T02:52:54;101623.16;;;6.72;93.38
81352;BME280;70809;52.184;13.422;2024-02-21T02:53:56;101613.28;;;6.67;93.44
81352;BME280;70809;52.184;13.422;2024-02-21T02:54:59;101617.97;;;6.74;92.83
81352;BME280;70809;52.184;13.422;2024-02-21T02:56:01;101620.78;;;6.78;93.09
81352;BME280;70809;52.184;13.422;2024-02-21T02:57:02;101617.91;;;6.72;92.66
81352;BME280;70809;52.184;13.422;2024-02-21T02:58:04;101619.06;;;6.79;92.46
81352;BME280;70809;52.184;13.422;2024-02-21T02:59:06;101616.16;;;6.93;92.13
81352;BME280;70809;52.184;13.422;2024-02-21T03:00:08;101616.53;;;6.82;92.31
81352;BME280;70809;52.184;13.422;2024-02-21T03:01:11;101610.09;;;6.74;92.73
81352;BME280;70809;52.184;13.422;2024-02-21T03:02:13;101614.19;;;6.67;93.37
81352;BME280;70809;52.184;13.422;2024-02-21T03:03:14;101614.81;;;6.61;93.92
81352;BME280;70809;52.184;13.422;2024-02-21T03:04:16;101606.34;;;6.69;93.96
81352;BME280;70809;52.184;13.422;2024-02-21T03:05:19;101618.66;;;6.70;93.24
81352;BME280;70809;52.184;13.422;2024-02-21T03:06:22;101617.91;;;6.72;92.88
81352;BME280;70809;52.184;13.422;2024-02-21T03:07:25;101615.19;;;6.71;93.25
81352;BME280;70809;52.184;13.422;2024-02-21T03:08:26;101608.22;;;6.71;93.17
81352;BME280;70809;52.184;13.422;2024-02-21T03:09:28;101606.69;;;6.76;93.06
81352;BME280;70809;52.184;13.422;2024-02-21T03:10:31;101611.59;;;6.69;92.75
81352;BME280;70809;52.184;13.422;2024-02-21T03:11:33;101607.94;;;6.65;93.34
81352;BME280;70809;52.184;13.422;2024-02-21T03:12:35;101604.63;;;6.69;93.09
81352;BME280;70809;52.184;13.422;2024-02-21T03:13:36;101611.88;;;6.75;93.66
81352;BME280;70809;52.184;13.422;2024-02-21T03:14:38;101612.06;;;6.79;92.87
81352;BME280;70809;52.184;13.422;2024-02-21T03:15:40;101610.59;;;6.86;92.95
81352;BME280;70809;52.184;13.422;2024-02-21T03:16:41;101600.28;;;6.90;91.90
81352;BME280;70809;52.184;13.422;2024-02-21T03:17:43;101602.88;;;6.89;92.65
81352;BME280;70809;52.184;13.422;2024-02-21T03:18:45;101600.25;;;6.89;92.33
81352;BME280;70809;52.184;13.422;2024-02-21T03:19:48;101596.63;;;6.87;92.34
81352;BME280;70809;52.184;13.422;2024-02-21T03:20:49;101595.88;;;6.89;92.27
81352;BME280;70809;52.184;13.422;2024-02-21T03:21:51;101591.06;;;6.79;93.11
81352;BME280;70809;52.184;13.422;2024-02-21T03:22:53;101591.78;;;6.96;92.90
81352;BME280;70809;52.184;13.422;2024-02-21T03:23:54;101592.53;;;6.93;92.85
81352;BME280;70809;52.184;13.422;2024-02-21T03:24:56;101593.72;;;7.00;92.85
81352;BME280;70809;52.184;13.422;2024-02-21T03:25:59;101585.13;;;6.83;92.96
81352;BME280;70809;52.184;13.422;2024-02-21T03:27:01;101594.13;;;6.69;94.22
81352;BME280;70809;52.184;13.422;2024-02-21T03:28:03;101593.69;;;6.79;94.37
81352;BME280;70809;52.184;13.422;2024-02-21T03:29:04;101599.06;;;6.82;93.84
81352;BME280;70809;52.184;13.422;2024-02-21T03:30:06;101595.69;;;6.85;93.96
81352;BME280;70809;52.184;13.422;2024-02-21T03:31:10;101589.59;;;6.86;94.19
81352;BME280;70809;52.184;13.422;2024-02-21T03:32:12;101593.75;;;6.81;94.76
81352;BME280;70809;52.184;13.422;2024-02-21T03:33:14;101595.22;;;6.74;95.44
81352;BME280;70809;52.184;13.422;2024-02-21T03:34:15;101592.28;;;6.67;95.98
81352;BME280;70809;52.184;13.422;2024-02-21T03:35:17;101590.34;;;6.62;96.95
81352;BME280;70809;52.184;13.422;2024-02-21T03:36:19;101583.69;;;6.71;96.92
81352;BME280;70809;52.184;13.422;2024-02-21T03:37:21;101589.13;;;6.54;97.11
81352;BME280;70809;52.184;13.422;2024-02-21T03:38:23;101584.63;;;6.52;96.95
81352;BME280;70809;52.184;13.422;2024-02-21T03:39:24;101584.50;;;6.49;97.90
81352;BME280;70809;52.184;13.422;2024-02-21T03:40:26;101580.69;;;6.42;98.58
81352;BME280;70809;52.184;13.422;2024-02-21T03:41:29;101580.78;;;6.44;98.75
81352;BME280;70809;52.184;13.422;2024-02-21T03:42:31;101587.19;;;6.50;99.56
81352;BME280;70809;52.184;13.422;2024-02-21T03:43:33;101583.53;;;6.47;99.02
81352;BME280;70809;52.184;13.422;2024-02-21T03:44:34;101584.78;;;6.35;99.79
81352;BME280;70809;52.184;13.422;2024-02-21T03:45:36;101588.66;;;6.44;99.39
81352;BME280;70809;52.184;13.422;2024-02-21T03:46:37;101581.03;;;6.30;100.00
81352;BME280;70809;52.184;13.422;2024-02-21T03:47:39;101590.03;;;6.35;100.00
81352;BME280;70809;52.184;13.422;2024-02-21T03:48:41;101580.41;;;6.36;100.00
81352;BME280;70809;52.184;13.422;2024-02-21T03:49:42;101590.78;;;6.33;100.00
81352;BME280;70809;52.184;13.422;2024-02-21T03:50:44;101581.53;;;6.41;100.00
81352;BME280;70809;52.184;13.422;2024-02-21T03:51:46;101588.19;;;6.33;100.00
81352;BME280;70809;52.184;13.422;2024-02-21T03:52:48;101584.56;;;6.50;100.00
81352;BME280;70809;52.184;13.422;2024-02-21T03:53:49;101581.69;;;6.65;100.00
81352;BME280;70809;52.184;13.422;2024-02-21T03:54:51;101581.50;;;6.60;99.71
81352;BME280;70809;52.184;13.422;2024-02-21T03:55:52;101579.44;;;6.53;100.00
81352;BME280;70809;52.184;13.422;2024-02-21T03:56:55;101584.63;;;6.52;100.00
81352;BME280;70809;52.184;13.422;2024-02-21T03:57:57;101588.97;;;6.51;100.00
81352;BME280;70809;52.184;13.422;2024-02-21T03:58:59;101579.00;;;6.63;99.57
81352;BME280;70809;52.184;13.422;2024-02-21T04:00:00;101588.94;;;6.71;99.75
81352;BME280;70809;52.184;13.422;2024-02-21T04:01:08;101571.34;;;6.89;98.98
81352;BME280;70809;52.184;13.422;2024-02-21T04:02:10;101575.59;;;6.45;99.26
81352;BME280;70809;52.184;13.422;2024-02-21T04:03:12;101569.81;;;6.33;100.00
81352;BME280;70809;52.184;13.422;2024-02-21T04:04:14;101573.16;;;6.50;100.00
81352;BME280;70809;52.184;13.422;2024-02-21T04:05:16;101561.03;;;6.73;100.00
81352;BME280;70809;52.184;13.422;2024-02-21T04:06:18;101565.03;;;6.64;99.43
81352;BME280;70809;52.184;13.422;2024-02-21T04:07:19;101561.19;;;6.56;99.60
81352;BME280;70809;52.184;13.422;2024-02-21T04:08:22;101560.19;;;6.74;99.70
81352;BME280;70809;52.184;13.422;2024-02-21T04:09:23;101548.22;;;6.80;99.19
81352;BME280;70809;52.184;13.422;2024-02-21T04:10:25;101554.50;;;6.84;98.91
81352;BME280;70809;52.184;13.422;2024-02-21T04:11:27;101552.78;;;6.84;99.00
81352;BME280;70809;52.184;13.422;2024-02-21T04:12:30;101546.28;;;6.97;98.18
81352;BME280;70809;52.184;13.422;2024-02-21T04:13:31;101550.06;;;6.62;98.85
81352;BME280;70809;52.184;13.422;2024-02-21T04:14:33;101550.00;;;6.60;99.76
81352;BME280;70809;52.184;13.422;2024-02-21T04:15:34;101556.22;;;6.62;99.46
81352;BME280;70809;52.184;13.422;2024-02-21T04:16:39;101554.09;;;6.54;100.00
81352;BME280;70809;52.184;13.422;2024-02-21T04:17:41;101555.13;;;6.57;100.00
81352;BME280;70809;52.184;13.422;2024-02-21T04:18:43;101548.31;;;6.42;100.00
81352;BME280;70809;52.184;13.422;2024-02-21T04:19:45;101549.97;;;6.39;100.00
81352;BME280;70809;52.184;13.422;2024-02-21T04:20:46;101548.66;;;6.30;100.00
81352;BME280;70809;52.184;13.422;2024-02-21T04:21:48;101544.94;;;6.44;100.00
81352;BME280;70809;52.184;13.422;2024-02-21T04:22:50;101545.78;;;6.43;100.00
81352;BME280;70809;52.184;13.422;2024-02-21T04:23:51;101544.53;;;6.35;100.00
81352;BME280;70809;52.184;13.422;2024-02-21T04:24:53;101551.66;;;6.37;100.00
81352;BME280;70809;52.184;13.422;2024-02-21T04:25:55;101545.03;;;6.26;100.00
81352;BME280;70809;52.184;13.422;2024-02-21T04:26:56;101531.81;;;6.44;100.00
81352;BME280;70809;52.184;13.422;2024-02-21T04:27:59;101536.06;;;6.42;100.00
81352;BME280;70809;52.184;13.422;2024-02-21T04:29:01;101532.44;;;6.38;100.00
81352;BME280;70809;52.184;13.422;2024-02-21T04:30:04;101541.19;;;6.39;100.00
81352;BME280;70809;52.184;13.422;2024-02-21T04:31:06;101537.53;;;6.55;100.00
81352;BME280;70809;52.184;13.422;2024-02-21T04:32:07;101537.44;;;6.53;100.00
81352;BME280;70809;52.184;13.422;2024-02-21T04:33:09;101539.84;;;6.28;100.00
81352;BME280;70809;52.184;13.422;2024-02-21T04:34:11;101532.06;;;6.50;100.00
81352;BME280;70809;52.184;13.422;2024-02-21T04:35:13;101531.50;;;6.57;100.00
81352;BME280;70809;52.184;13.422;2024-02-21T04:36:14;101520.16;;;6.79;100.00
81352;BME280;70809;52.184;13.422;2024-02-21T04:37:16;101523.25;;;6.90;100.00
81352;BME280;70809;52.184;13.422;2024-02-21T04:38:17;101524.00;;;6.67;100.00
81352;BME280;70809;52.184;13.422;2024-02-21T04:39:19;101521.94;;;6.80;100.00
81352;BME280;70809;52.184;13.422;2024-02-21T04:40:21;101509.00;;;6.85;99.89
81352;BME280;70809;52.184;13.422;2024-02-21T04:41:22;101512.72;;;6.90;99.76
81352;BME280;70809;52.184;13.422;2024-02-21T04:42:24;101513.16;;;6.59;99.99
81352;BME280;70809;52.184;13.422;2024-02-21T04:43:27;101510.19;;;6.50;100.00
81352;BME280;70809;52.184;13.422;2024-02-21T04:44:28;101499.72;;;6.51;100.00
81352;BME280;70809;52.184;13.422;2024-02-21T04:45:30;101497.63;;;6.63;100.00
81352;BME280;70809;52.184;13.422;2024-02-21T04:46:31;101486.28;;;6.64;100.00
81352;BME280;70809;52.184;13.422;2024-02-21T04:47:33;101494.78;;;6.80;100.00
81352;BME280;70809;52.184;13.422;2024-02-21T04:48:35;101486.22;;;6.84;99.79
81352;BME280;70809;52.184;13.422;2024-02-21T04:49:36;101482.25;;;6.73;98.84
81352;BME280;70809;52.184;13.422;2024-02-21T04:50:38;101482.75;;;6.85;99.57
81352;BME280;70809;52.184;13.422;2024-02-21T04:51:40;101472.75;;;6.76;99.49
81352;BME280;70809;52.184;13.422;2024-02-21T04:52:42;101473.88;;;6.60;99.71
81352;BME280;70809;52.184;13.422;2024-02-21T04:53:44;101465.53;;;6.29;100.00
81352;BME280;70809;52.184;13.422;2024-02-21T04:54:45;101469.66;;;6.43;100.00
81352;BME280;70809;52.184;13.422;2024-02-21T04:55:47;101464.31;;;6.62;100.00
81352;BME280;70809;52.184;13.422;2024-02-21T04:56:49;101471.88;;;6.76;100.00
81352;BME280;70809;52.184;13.422;2024-02-21T04:57:54;101461.06;;;6.68;99.64
81352;BME280;70809;52.184;13.422;2024-02-21T04:58:57;101466.50;;;6.73;100.00
81352;BME280;70809;52.184;13.422;2024-02-21T04:59:58;101452.88;;;6.39;100.00
81352;BME280;70809;52.184;13.422;2024-02-21T05:01:00;101451.34;;;6.45;100.00
81352;BME280;70809;52.184;13.422;2024-02-21T05:02:02;101445.75;;;6.58;100.00
81352;BME280;70809;52.184;13.422;2024-02-21T05:03:04;101446.78;;;6.61;100.00
81352;BME280;70809;52.184;13.422;2024-02-21T05:04:05;101435.66;;;6.67;100.00
81352;BME280;70809;52.184;13.422;2024-02-21T05:05:07;101444.22;;;6.63;100.00
81352;BME280;70809;52.184;13.422;2024-02-21T05:06:09;101447.44;;;6.56;100.00
81352;BME280;70809;52.184;13.422;2024-02-21T05:07:10;101449.47;;;6.63;100.00
81352;BME280;70809;52.184;13.422;2024-02-21T05:08:12;101445.91;;;6.61;99.72
81352;BME280;70809;52.184;13.422;2024-02-21T05:09:14;101447.19;;;6.50;100.00
81352;BME280;70809;52.184;13.422;2024-02-21T05:10:16;101444.22;;;6.63;100.00
81352;BME280;70809;52.184;13.422;2024-02-21T05:11:18;101433.22;;;6.72;100.00
81352;BME280;70809;52.184;13.422;2024-02-21T05:12:21;101427.81;;;6.69;99.91
81352;BME280;70809;52.184;13.422;2024-02-21T05:13:22;101437.19;;;6.41;100.00
81352;BME280;70809;52.184;13.422;2024-02-21T05:14:26;101429.75;;;6.52;100.00
81352;BME280;70809;52.184;13.422;2024-02-21T05:15:30;101438.22;;;6.65;100.00
81352;BME280;70809;52.184;13.422;2024-02-21T05:16:33;101430.41;;;6.46;100.00
81352;BME280;70809;52.184;13.422;2024-02-21T05:17:35;101429.13;;;6.36;100.00
81352;BME280;70809;52.184;13.422;2024-02-21T05:18:37;101430.69;;;6.31;100.00
81352;BME280;70809;52.184;13.422;2024-02-21T05:19:39;101432.06;;;6.23;100.00
81352;BME280;70809;52.184;13.422;2024-02-21T05:20:41;101432.81;;;6.42;100.00
81352;BME280;70809;52.184;13.422;2024-02-21T05:21:42;101431.00;;;6.60;100.00
81352;BME280;70809;52.184;13.422;2024-02-21T05:22:44;101429.69;;;6.71;100.00